Time;durP1;ratioP1;P1;durP2;ratioP2;P2;SDS_P1;SDS_P2;PMS_P1;PMS_P2;Temp;Humidity;BMP_temperature;BMP_pressure;BME280_temperature;BME280_humidity;BME280_pressure;Samples;Min_cycle;Max_cycle;Signal;HPM_P1;HPM_P2
2022/06/13 00:01:38;;;;;;;0.20;0.20;;;;;;;19.06;43.97;101470.25;5191301;28;20029;-79
2022/06/13 00:04:08;;;;;;;0.82;0.82;;;;;;;19.03;43.96;101473.09;5192133;28;20085;-82
2022/06/13 00:06:39;;;;;;;0.80;0.80;;;;;;;19.00;44.60;101463.47;5230967;28;20040;-78
2022/06/13 00:09:10;;;;;;;1.60;0.90;;;;;;;18.98;44.02;101472.44;5213790;28;20033;-78
2022/06/13 00:11:41;;;;;;;0.73;0.73;;;;;;;18.98;44.89;101470.66;5210453;28;20098;-78
2022/06/13 00:14:12;;;;;;;0.40;0.40;;;;;;;18.95;44.30;101475.28;5204769;28;20059;-80
2022/06/13 00:16:42;;;;;;;0.20;0.20;;;;;;;18.87;44.17;101471.19;5223595;28;20066;-79
2022/06/13 00:19:13;;;;;;;0.30;0.30;;;;;;;18.84;44.13;101463.34;5223137;28;20056;-81
2022/06/13 00:21:43;;;;;;;0.47;0.47;;;;;;;18.84;44.38;101455.38;5205417;28;20484;-79
2022/06/13 00:24:14;;;;;;;0.68;0.68;;;;;;;18.80;44.38;101467.06;5202802;28;20556;-81
2022/06/13 00:26:44;;;;;;;1.00;0.88;;;;;;;18.76;44.77;101460.22;5204066;28;20032;-80
2022/06/13 00:29:14;;;;;;;0.38;0.38;;;;;;;18.75;44.74;101461.13;5167036;28;20090;-80
2022/06/13 00:31:45;;;;;;;0.20;0.20;;;;;;;18.71;44.66;101462.25;5223101;28;20476;-81
2022/06/13 00:34:15;;;;;;;0.30;0.30;;;;;;;18.65;44.72;101463.41;5191906;28;20032;-80
2022/06/13 00:36:46;;;;;;;0.30;0.30;;;;;;;18.65;44.70;101465.19;5201789;28;20195;-78
2022/06/13 00:39:17;;;;;;;0.40;0.40;;;;;;;18.65;44.65;101458.09;5217330;28;20200;-79
2022/06/13 00:41:48;;;;;;;0.40;0.40;;;;;;;18.64;44.65;101450.16;5221640;28;20025;-78
2022/06/13 00:44:31;;;;;;;0.30;0.30;;;;;;;18.64;45.40;101445.72;5187341;28;20413;-81
2022/06/13 00:47:02;;;;;;;0.63;0.63;;;;;;;18.67;45.35;101444.72;5201608;28;20350;-78
2022/06/13 00:49:40;;;;;;;0.40;0.40;;;;;;;18.66;45.34;101445.66;5226475;28;20029;-79
2022/06/13 00:52:47;;;;;;;1.55;1.20;;;;;;;18.62;45.17;101442.28;5175061;28;20116;-79
2022/06/13 00:55:28;;;;;;;1.75;1.23;;;;;;;18.61;45.67;101447.69;5175436;28;20091;-80
2022/06/13 00:58:00;;;;;;;0.38;0.38;;;;;;;18.53;45.98;101448.03;5189566;28;20390;-78
2022/06/13 01:00:33;;;;;;;0.68;0.57;;;;;;;18.50;45.76;101443.75;5219942;28;20041;-78
2022/06/13 01:03:05;;;;;;;1.08;0.80;;;;;;;18.50;45.62;101449.06;5186438;28;20028;-80
2022/06/13 01:05:39;;;;;;;0.50;0.50;;;;;;;18.45;45.56;101451.09;5202190;28;20059;-79
2022/06/13 01:08:11;;;;;;;1.63;0.40;;;;;;;18.43;46.03;101442.34;5200145;28;20029;-78
2022/06/13 01:14:04;;;;;;;0.70;0.70;;;;;;;18.34;45.79;101440.13;5201318;28;20257;-79
2022/06/13 01:17:25;;;;;;;0.80;0.80;;;;;;;18.30;45.56;101442.06;5219301;28;20056;-78
2022/06/13 01:20:02;;;;;;;2.53;1.77;;;;;;;18.27;45.68;101442.19;5167216;28;20136;-81
2022/06/13 01:22:47;;;;;;;0.20;0.20;;;;;;;18.28;45.74;101445.72;5216709;28;20501;-78
2022/06/13 01:25:52;;;;;;;0.38;0.38;;;;;;;18.21;45.73;101442.50;5200962;28;20036;-79
2022/06/13 01:28:39;;;;;;;0.20;0.20;;;;;;;18.18;45.77;101456.78;5204415;28;20032;-79
2022/06/13 01:31:30;;;;;;;0.35;0.35;;;;;;;18.12;45.84;101449.13;5184762;28;20671;-79
2022/06/13 01:34:19;;;;;;;0.30;0.30;;;;;;;18.06;46.00;101452.03;5203289;28;20370;-79
2022/06/13 01:37:14;;;;;;;0.40;0.40;;;;;;;18.02;46.08;101451.34;5219393;28;20378;-81
2022/06/13 01:40:11;;;;;;;1.48;0.85;;;;;;;18.02;46.09;101453.13;5200611;28;20037;-80
2022/06/13 01:42:52;;;;;;;1.35;0.75;;;;;;;17.96;46.19;101453.44;5195541;28;20049;-80
2022/06/13 01:45:41;;;;;;;0.50;0.50;;;;;;;17.98;46.68;101455.06;5204046;28;20049;-79
2022/06/13 01:48:14;;;;;;;0.30;0.30;;;;;;;17.91;46.28;101457.13;5202921;28;20025;-81
2022/06/13 01:50:54;;;;;;;0.90;0.90;;;;;;;17.89;46.49;101458.13;5205503;28;20044;-79
2022/06/13 01:53:45;;;;;;;0.75;0.75;;;;;;;17.86;46.36;101458.25;5219253;28;20037;-79
2022/06/13 01:56:19;;;;;;;0.55;0.52;;;;;;;17.84;46.55;101463.63;5188058;28;20404;-78
2022/06/13 01:58:56;;;;;;;0.50;0.50;;;;;;;17.81;46.51;101460.28;5201800;28;20033;-77
2022/06/13 02:01:58;;;;;;;0.30;0.30;;;;;;;17.79;46.74;101465.66;5219034;28;20037;-79
2022/06/13 02:04:35;;;;;;;0.57;0.47;;;;;;;17.76;46.27;101465.78;5183859;28;20048;-80
2022/06/13 02:07:29;;;;;;;0.22;0.22;;;;;;;17.75;46.68;101466.72;5200685;28;20033;-78
2022/06/13 02:10:07;;;;;;;0.40;0.40;;;;;;;17.72;46.71;101465.06;5220094;28;20048;-81
2022/06/13 02:12:41;;;;;;;0.85;0.85;;;;;;;17.70;47.08;101466.06;5187859;28;20606;-80
2022/06/13 02:15:22;;;;;;;0.40;0.40;;;;;;;17.69;46.93;101459.03;5223899;28;20529;-81
2022/06/13 02:18:01;;;;;;;2.13;0.80;;;;;;;17.70;47.13;101456.31;5222050;28;20041;-78
2022/06/13 02:20:36;;;;;;;0.30;0.30;;;;;;;17.70;47.94;101460.75;5204782;28;20470;-80
2022/06/13 02:23:12;;;;;;;0.20;0.20;;;;;;;17.68;47.41;101454.66;5227532;28;20032;-80
2022/06/13 02:25:50;;;;;;;0.60;0.60;;;;;;;17.61;47.34;101452.28;5220461;28;20040;-78
2022/06/13 02:28:46;;;;;;;3.20;1.48;;;;;;;17.60;47.25;101466.47;5206789;28;20036;-78
2022/06/13 02:31:21;;;;;;;0.30;0.30;;;;;;;17.56;47.35;101456.91;5207875;28;20048;-79
2022/06/13 02:34:18;;;;;;;0.35;0.35;;;;;;;17.57;47.34;101449.84;5207616;28;20021;-78
2022/06/13 02:36:58;;;;;;;0.80;0.80;;;;;;;17.56;47.63;101441.00;5211983;28;20048;-80
2022/06/13 02:39:35;;;;;;;0.50;0.50;;;;;;;17.56;47.62;101441.00;5225702;28;20049;-79
2022/06/13 02:42:13;;;;;;;0.60;0.60;;;;;;;17.55;47.92;101434.00;5224778;28;20079;-82
2022/06/13 02:45:19;;;;;;;0.45;0.45;;;;;;;17.52;47.89;101436.78;5205387;28;20596;-81
2022/06/13 02:47:54;;;;;;;0.40;0.40;;;;;;;17.51;48.45;101443.00;5216783;28;20298;-78
2022/06/13 02:50:36;;;;;;;0.20;0.20;;;;;;;17.49;47.98;101439.56;5210127;28;20111;-81
2022/06/13 02:53:25;;;;;;;0.45;0.45;;;;;;;17.46;48.38;101437.06;5191925;28;20078;-79
2022/06/13 02:56:11;;;;;;;0.45;0.45;;;;;;;17.49;48.37;101438.72;5197731;28;20099;-78
2022/06/13 02:59:02;;;;;;;1.55;0.90;;;;;;;17.44;48.25;101437.09;5228053;28;20029;-81
2022/06/13 03:01:46;;;;;;;0.93;0.75;;;;;;;17.41;48.09;101442.56;5225441;28;20048;-79
2022/06/13 03:04:28;;;;;;;0.77;0.55;;;;;;;17.40;48.28;101439.97;5242361;28;20017;-80
2022/06/13 03:07:05;;;;;;;0.77;0.55;;;;;;;17.37;48.31;101440.13;5217784;28;20060;-81
2022/06/13 03:10:17;;;;;;;1.13;0.95;;;;;;;17.37;48.20;101435.66;5208752;28;20168;-79
2022/06/13 03:13:10;;;;;;;0.30;0.30;;;;;;;17.33;48.10;101442.06;5209551;28;20040;-78
2022/06/13 03:15:56;;;;;;;1.05;0.80;;;;;;;17.33;48.41;101450.00;5194301;28;20045;-80
2022/06/13 03:18:31;;;;;;;1.00;1.00;;;;;;;17.28;48.17;101450.22;5226804;28;20061;-79
2022/06/13 03:21:09;;;;;;;1.20;1.13;;;;;;;17.26;48.26;101444.09;5224798;28;20067;-79
2022/06/13 03:23:57;;;;;;;0.30;0.30;;;;;;;17.29;48.55;101449.28;5209344;28;20456;-78
2022/06/13 03:26:39;;;;;;;2.28;1.17;;;;;;;17.25;48.54;101445.03;5220420;28;20109;-80
2022/06/13 03:29:16;;;;;;;0.85;0.85;;;;;;;17.29;48.85;101446.63;5201714;28;20033;-78
2022/06/13 03:32:04;;;;;;;0.28;0.28;;;;;;;17.25;48.72;101438.88;5207006;28;20124;-79
2022/06/13 03:34:39;;;;;;;1.30;1.05;;;;;;;17.24;48.66;101432.69;5188730;28;20364;-79
2022/06/13 03:37:17;;;;;;;0.52;0.52;;;;;;;17.21;48.75;101435.50;5195428;28;20040;-81
2022/06/13 03:39:55;;;;;;;0.75;0.75;;;;;;;17.21;49.04;101431.97;5204627;28;20536;-79
2022/06/13 03:42:38;;;;;;;2.28;1.38;;;;;;;17.20;48.94;101433.78;5213827;28;20111;-78
2022/06/13 03:45:20;;;;;;;0.30;0.30;;;;;;;17.17;49.15;101436.53;5205919;28;20037;-79
2022/06/13 03:48:04;;;;;;;0.85;0.52;;;;;;;17.14;48.88;101437.53;5190148;28;20029;-80
2022/06/13 03:50:55;;;;;;;0.60;0.60;;;;;;;17.15;48.83;101430.44;5227258;28;20471;-78
2022/06/13 03:53:42;;;;;;;2.35;1.75;;;;;;;17.16;49.15;101426.84;5220632;28;20028;-79
2022/06/13 03:56:40;;;;;;;0.98;0.60;;;;;;;17.18;49.86;101432.97;5222474;28;20052;-79
2022/06/13 03:59:18;;;;;;;1.00;0.90;;;;;;;17.20;49.95;101435.53;5185870;28;20044;-79
2022/06/13 04:01:54;;;;;;;0.75;0.75;;;;;;;17.16;49.63;101429.50;5207048;28;20517;-79
2022/06/13 04:04:41;;;;;;;0.35;0.35;;;;;;;17.15;49.90;101433.09;5203009;28;20161;-81
2022/06/13 04:07:12;;;;;;;0.50;0.50;;;;;;;17.14;50.92;101440.19;5203866;28;20059;-78
2022/06/13 04:09:48;;;;;;;0.30;0.30;;;;;;;17.08;50.22;101440.47;5218759;28;20094;-79
2022/06/13 04:12:41;;;;;;;1.00;0.45;;;;;;;17.07;49.78;101440.50;5207697;28;20515;-80
2022/06/13 04:15:33;;;;;;;0.77;0.77;;;;;;;17.07;49.56;101436.09;5203641;28;20113;-79
2022/06/13 04:18:35;;;;;;;2.08;0.98;;;;;;;17.10;50.10;101443.03;5202317;28;20527;-81
2022/06/13 04:21:30;;;;;;;1.00;0.95;;;;;;;17.09;50.59;101438.66;5220592;28;20155;-79
2022/06/13 04:24:14;;;;;;;0.38;0.38;;;;;;;17.11;50.35;101444.75;5170909;28;20025;-78
2022/06/13 04:26:59;;;;;;;0.57;0.57;;;;;;;17.08;50.33;101448.41;5205827;28;20049;-79
2022/06/13 04:29:39;;;;;;;0.52;0.52;;;;;;;17.10;50.30;101448.34;5188300;28;20447;-80
2022/06/13 04:32:14;;;;;;;0.45;0.45;;;;;;;17.12;50.54;101446.50;5205664;28;20389;-80
2022/06/13 04:34:48;;;;;;;0.35;0.35;;;;;;;17.10;50.81;101446.56;5220034;28;20044;-79
2022/06/13 04:37:23;;;;;;;0.55;0.55;;;;;;;17.06;50.05;101452.91;5207292;28;20033;-79
2022/06/13 04:39:59;;;;;;;1.25;1.15;;;;;;;17.04;50.04;101464.53;5219965;28;20124;-77
2022/06/13 04:42:35;;;;;;;0.55;0.55;;;;;;;17.02;50.16;101471.66;5191626;28;20622;-77
2022/06/13 04:45:17;;;;;;;1.60;1.48;;;;;;;17.04;50.91;101470.66;5187044;28;20049;-79
2022/06/13 04:47:50;;;;;;;1.75;0.43;;;;;;;17.02;51.13;101474.31;5221119;28;20044;-78
2022/06/13 04:50:36;;;;;;;1.57;1.20;;;;;;;16.99;50.81;101470.88;5210538;28;20463;-80
2022/06/13 04:53:13;;;;;;;0.30;0.30;;;;;;;16.84;54.48;101474.13;5185839;28;20884;-80
2022/06/13 04:55:50;;;;;;;0.30;0.30;;;;;;;16.98;52.42;101479.75;5182585;28;20675;-78
2022/06/13 04:58:29;;;;;;;0.40;0.40;;;;;;;16.94;52.92;101475.50;5222427;28;20040;-78
2022/06/13 05:01:17;;;;;;;0.30;0.30;;;;;;;16.98;53.11;101466.47;5192861;28;20037;-78
2022/06/13 05:03:49;;;;;;;6.28;2.28;;;;;;;16.92;52.22;101465.88;5205025;28;20040;-79
2022/06/13 05:06:33;;;;;;;0.30;0.30;;;;;;;16.91;52.67;101470.28;5203757;28;20044;-78
2022/06/13 05:09:16;;;;;;;0.20;0.20;;;;;;;16.99;53.58;101473.50;5174590;28;20040;-79
2022/06/13 05:11:50;;;;;;;9.18;1.13;;;;;;;17.03;52.79;101484.00;5191089;28;20071;-79
2022/06/13 05:14:29;;;;;;;3.03;1.40;;;;;;;17.02;51.85;101484.94;5172307;28;20501;-79
2022/06/13 05:17:09;;;;;;;0.50;0.50;;;;;;;17.05;52.43;101492.75;5222398;28;20041;-80
2022/06/13 05:19:59;;;;;;;1.45;1.35;;;;;;;17.08;51.88;101498.78;5207381;28;20052;-77
2022/06/13 05:23:14;;;;;;;0.88;0.88;;;;;;;17.11;52.44;101484.53;5237534;28;20028;-80
2022/06/13 05:25:47;;;;;;;0.60;0.60;;;;;;;17.09;51.73;101495.22;5169941;28;20045;-81
2022/06/13 05:28:22;;;;;;;0.93;0.93;;;;;;;17.09;52.04;101505.81;5185517;28;20024;-79
2022/06/13 05:30:56;;;;;;;1.58;1.38;;;;;;;17.12;52.12;101507.47;5221405;28;20045;-80
2022/06/13 05:33:35;;;;;;;0.47;0.40;;;;;;;17.17;52.10;101512.59;5211727;28;20032;-78
2022/06/13 05:36:14;;;;;;;0.65;0.65;;;;;;;17.17;52.12;101523.19;5189636;28;20051;-79
2022/06/13 05:38:50;;;;;;;4.53;2.03;;;;;;;17.16;52.53;101524.97;5207465;28;20673;-78
2022/06/13 05:41:21;;;;;;;0.70;0.70;;;;;;;17.21;52.62;101523.00;5225878;28;20052;-78
2022/06/13 05:43:52;;;;;;;1.40;0.60;;;;;;;17.23;52.39;101523.78;5192866;28;20036;-79
2022/06/13 05:46:26;;;;;;;0.88;0.88;;;;;;;17.26;52.84;101518.34;5203900;28;20049;-80
2022/06/13 05:48:56;;;;;;;0.30;0.30;;;;;;;17.16;53.43;101517.00;5205945;28;20834;-79
2022/06/13 05:51:27;;;;;;;0.40;0.40;;;;;;;17.16;54.37;101517.00;5231895;22;20122;-78
2022/06/13 05:53:58;;;;;;;0.52;0.52;;;;;;;16.85;56.62;101510.31;5228164;28;20059;-79
2022/06/13 05:56:28;;;;;;;0.80;0.30;;;;;;;16.79;56.36;101514.06;5229600;28;20065;-78
2022/06/13 05:58:59;;;;;;;0.20;0.20;;;;;;;16.96;54.78;101518.72;5211297;28;20095;-76
2022/06/13 06:01:30;;;;;;;0.47;0.47;;;;;;;17.01;54.33;101518.53;5191040;28;20033;-77
2022/06/13 06:04:00;;;;;;;0.20;0.20;;;;;;;17.09;54.01;101523.50;5236374;28;20024;-75
2022/06/13 06:06:33;;;;;;;0.40;0.40;;;;;;;17.08;53.62;101529.72;5220456;28;20094;-75
2022/06/13 06:09:06;;;;;;;2.33;1.25;;;;;;;16.98;54.37;101532.75;5195864;28;20060;-78
2022/06/13 06:11:36;;;;;;;1.50;1.25;;;;;;;16.99;55.56;101531.84;5191878;28;20040;-76
2022/06/13 06:14:07;;;;;;;3.20;0.77;;;;;;;16.89;56.39;101535.78;5210063;28;20064;-76
2022/06/13 06:16:38;;;;;;;0.25;0.22;;;;;;;17.00;55.39;101532.72;5214953;28;20071;-77
2022/06/13 06:19:08;;;;;;;1.25;0.98;;;;;;;16.96;56.53;101531.09;5210422;28;20603;-78
2022/06/13 06:21:39;;;;;;;1.00;0.93;;;;;;;16.92;55.98;101529.47;5218224;28;20434;-78
2022/06/13 06:24:09;;;;;;;0.45;0.45;;;;;;;17.10;54.98;101528.75;5212567;28;20021;-78
2022/06/13 06:26:40;;;;;;;0.30;0.30;;;;;;;16.97;57.37;101535.47;5201773;28;20156;-77
2022/06/13 06:29:11;;;;;;;0.50;0.50;;;;;;;17.13;55.75;101528.63;5212093;28;20032;-77
2022/06/13 06:31:41;;;;;;;0.52;0.52;;;;;;;17.05;57.02;101530.72;5199040;28;20028;-77
2022/06/13 06:34:13;;;;;;;0.65;0.65;;;;;;;16.68;60.07;101530.41;5201194;28;20029;-78
2022/06/13 06:36:43;;;;;;;1.42;1.33;;;;;;;16.77;59.85;101525.66;5207255;28;20040;-76
2022/06/13 06:39:14;;;;;;;0.80;0.80;;;;;;;16.98;56.92;101530.09;5231100;28;20029;-78
2022/06/13 06:41:46;;;;;;;1.10;0.95;;;;;;;16.82;59.57;101527.19;5215211;28;20131;-78
2022/06/13 06:44:17;;;;;;;1.00;0.90;;;;;;;16.94;58.01;101525.03;5215499;28;20017;-78
2022/06/13 06:46:48;;;;;;;0.88;0.85;;;;;;;17.15;56.71;101531.19;5199023;28;20048;-78
2022/06/13 06:49:19;;;;;;;0.32;0.32;;;;;;;16.90;59.97;101526.88;5226418;28;20024;-79
2022/06/13 06:51:52;;;;;;;5.82;1.38;;;;;;;16.93;58.81;101534.75;5244431;28;20017;-75
2022/06/13 07:00:04;;;;;;;7.13;1.45;;;;;;;16.94;60.41;101544.44;5227241;28;20102;-76
2022/06/13 07:02:37;;;;;;;2.17;1.90;;;;;;;16.98;59.15;101540.72;5221518;28;20428;-76
2022/06/13 07:05:12;;;;;;;0.30;0.30;;;;;;;16.98;59.03;101546.00;5237686;28;20060;-76
2022/06/13 07:07:43;;;;;;;0.40;0.40;;;;;;;17.11;58.73;101546.38;5211112;28;20039;-79
2022/06/13 07:10:14;;;;;;;4.85;0.95;;;;;;;17.22;57.03;101551.25;5215287;28;20101;-78
2022/06/13 07:12:45;;;;;;;0.82;0.82;;;;;;;17.33;58.01;101552.56;5218905;28;20090;-77
2022/06/13 07:15:16;;;;;;;1.63;1.27;;;;;;;17.38;56.81;101551.44;5197183;28;20044;-78
2022/06/13 07:17:47;;;;;;;9.85;2.85;;;;;;;17.42;57.59;101561.03;5195266;28;20056;-78
2022/06/13 07:20:17;;;;;;;2.75;1.05;;;;;;;17.43;58.62;101564.53;5218308;28;20043;-79
2022/06/13 07:22:51;;;;;;;1.50;1.40;;;;;;;17.50;58.38;101565.97;5216223;28;20062;-78
2022/06/13 07:25:25;;;;;;;4.53;1.75;;;;;;;17.55;57.72;101564.00;5197584;28;20041;-79
2022/06/13 07:27:57;;;;;;;4.72;2.38;;;;;;;17.65;58.07;101560.94;5195641;28;20025;-79
2022/06/13 07:30:29;;;;;;;0.82;0.82;;;;;;;17.67;59.00;101554.66;5199781;28;20063;-78
2022/06/13 07:33:00;;;;;;;1.08;0.98;;;;;;;17.74;57.61;101563.19;5199569;28;20036;-79
2022/06/13 07:35:32;;;;;;;1.77;1.67;;;;;;;17.87;57.38;101560.84;5196061;28;20028;-78
2022/06/13 07:38:17;;;;;;;2.13;1.67;;;;;;;17.83;60.41;101560.13;5197208;28;20033;-78
2022/06/13 07:40:54;;;;;;;6.45;1.30;;;;;;;17.84;58.51;101566.31;5201788;28;20244;-77
2022/06/13 07:43:31;;;;;;;4.38;0.85;;;;;;;17.91;59.71;101560.66;5214388;28;20027;-79
2022/06/13 07:46:05;;;;;;;5.82;2.17;;;;;;;17.83;60.91;101560.13;5198824;28;20116;-76
2022/06/13 07:48:35;;;;;;;1.65;1.55;;;;;;;18.04;58.56;101563.66;5195956;28;20036;-78
2022/06/13 07:51:09;;;;;;;2.42;1.50;;;;;;;18.13;57.99;101573.00;5226622;28;20056;-77
2022/06/13 07:53:40;;;;;;;14.80;1.40;;;;;;;18.13;59.08;101567.69;5201951;28;20100;-77
2022/06/13 07:56:16;;;;;;;0.77;0.77;;;;;;;18.10;58.88;101578.44;5198233;28;20076;-75
2022/06/13 07:58:50;;;;;;;0.63;0.63;;;;;;;18.28;58.83;101570.59;5238370;28;20064;-77
2022/06/13 08:01:21;;;;;;;1.58;1.30;;;;;;;18.31;58.44;101573.97;5184214;28;20411;-78
2022/06/13 08:03:56;;;;;;;2.08;0.85;;;;;;;18.37;57.23;101575.47;5213901;28;20037;-78
2022/06/13 08:06:26;;;;;;;4.07;1.60;;;;;;;18.43;57.07;101583.16;5193785;28;20040;-78
2022/06/13 08:08:57;;;;;;;9.60;3.45;;;;;;;18.32;57.38;101588.09;5193333;28;20033;-77
2022/06/13 08:11:35;;;;;;;2.08;1.65;;;;;;;18.28;57.28;101579.41;5221100;28;20082;-78
2022/06/13 08:14:06;;;;;;;4.28;1.70;;;;;;;18.37;56.61;101576.31;5208081;28;20318;-78
2022/06/13 08:16:36;;;;;;;0.75;0.75;;;;;;;18.40;56.57;101592.13;5199350;28;20049;-77
2022/06/13 08:19:09;;;;;;;0.32;0.32;;;;;;;18.44;55.76;101598.16;5219450;28;20029;-78
2022/06/13 08:21:40;;;;;;;1.33;1.17;;;;;;;18.45;55.39;101594.56;5157429;28;20715;-79
2022/06/13 08:24:11;;;;;;;0.22;0.22;;;;;;;18.44;55.36;101592.84;5189687;28;20018;-78
2022/06/13 08:26:41;;;;;;;0.30;0.30;;;;;;;18.40;55.10;101586.81;5195411;28;20040;-78
2022/06/13 08:29:12;;;;;;;5.22;0.93;;;;;;;18.47;55.17;101599.81;5190691;28;20025;-80
2022/06/13 08:31:42;;;;;;;0.60;0.60;;;;;;;18.54;54.24;101593.28;5193832;28;20025;-78
2022/06/13 08:34:13;;;;;;;1.52;1.05;;;;;;;18.55;54.55;101597.66;5162799;28;20025;-79
2022/06/13 08:36:44;;;;;;;1.27;1.17;;;;;;;18.56;54.59;101602.88;5162488;28;20065;-79
2022/06/13 08:39:14;;;;;;;1.02;1.02;;;;;;;18.59;53.69;101601.03;5167624;28;20032;-78
2022/06/13 08:42:04;;;;;;;0.95;0.95;;;;;;;18.62;53.55;101600.91;5181419;28;20033;-77
2022/06/13 08:44:43;;;;;;;0.57;0.57;;;;;;;18.56;53.63;101600.22;5209838;28;20041;-78
2022/06/13 08:47:36;;;;;;;0.57;0.57;;;;;;;18.63;53.09;101599.97;5202211;28;20022;-77
2022/06/13 08:50:18;;;;;;;0.80;0.43;;;;;;;18.64;53.22;101601.66;5240635;28;20052;-78
2022/06/13 08:53:00;;;;;;;0.73;0.73;;;;;;;18.74;52.30;101602.13;5210126;28;20273;-77
2022/06/13 08:55:45;;;;;;;1.23;1.13;;;;;;;18.76;51.65;101613.53;5210249;28;20452;-78
2022/06/13 08:58:55;;;;;;;1.13;1.02;;;;;;;18.76;49.83;101608.22;5188653;28;20037;-79
2022/06/13 09:01:36;;;;;;;1.33;1.13;;;;;;;18.78;50.07;101612.53;5173501;28;20036;-78
2022/06/13 09:04:17;;;;;;;0.73;0.73;;;;;;;18.77;51.32;101617.91;5208552;28;20292;-79
2022/06/13 09:06:57;;;;;;;0.20;0.20;;;;;;;18.83;51.13;101620.28;5222398;28;20037;-77
2022/06/13 09:09:47;;;;;;;0.75;0.75;;;;;;;18.91;50.48;101623.44;5169146;28;20099;-78
2022/06/13 09:12:32;;;;;;;1.30;1.15;;;;;;;18.97;49.69;101620.50;5181982;28;20029;-78
2022/06/13 09:15:13;;;;;;;1.15;0.68;;;;;;;18.84;49.86;101633.50;5204226;28;20033;-79
2022/06/13 09:17:53;;;;;;;0.85;0.65;;;;;;;18.82;49.83;101631.84;5227580;28;20032;-79
2022/06/13 09:20:40;;;;;;;0.50;0.50;;;;;;;18.82;50.07;101631.84;5195521;28;20519;-79
2022/06/13 09:23:21;;;;;;;7.22;2.03;;;;;;;18.87;50.15;101638.69;5190044;28;20037;-79
2022/06/13 09:26:16;;;;;;;0.73;0.60;;;;;;;18.83;50.59;101634.44;5175050;28;20063;-79
2022/06/13 09:28:57;;;;;;;1.10;0.88;;;;;;;18.91;50.77;101639.41;5196154;28;20024;-79
2022/06/13 09:31:40;;;;;;;0.77;0.60;;;;;;;18.84;50.90;101637.97;5192039;28;20301;-79
2022/06/13 09:34:43;;;;;;;0.40;0.40;;;;;;;18.92;50.93;101634.94;5231029;28;20051;-79
2022/06/13 09:37:21;;;;;;;3.47;1.30;;;;;;;19.03;50.59;101638.81;5197390;28;20031;-78
2022/06/13 09:39:52;;;;;;;0.77;0.70;;;;;;;19.11;49.79;101641.13;5162167;28;20548;-79
2022/06/13 09:42:55;;;;;;;0.40;0.40;;;;;;;19.07;49.55;101644.84;5190796;28;20074;-79
2022/06/13 09:46:07;;;;;;;0.57;0.50;;;;;;;19.15;48.96;101653.31;5182513;28;20495;-78
2022/06/13 09:48:41;;;;;;;0.13;0.13;;;;;;;19.13;49.78;101655.19;5157993;28;20109;-80
2022/06/13 09:51:45;;;;;;;2.53;1.92;;;;;;;19.18;48.79;101650.53;5205733;28;20037;-80
2022/06/13 09:54:30;;;;;;;0.60;0.60;;;;;;;19.12;49.50;101652.63;5201542;28;20076;-79
2022/06/13 09:57:12;;;;;;;0.45;0.45;;;;;;;19.10;49.42;101650.03;5203602;28;20052;-79
2022/06/13 10:00:01;;;;;;;0.63;0.63;;;;;;;19.19;47.82;101654.91;5221222;28;20101;-80
2022/06/13 10:02:43;;;;;;;0.40;0.40;;;;;;;19.06;47.29;101643.13;5190258;28;20103;-79
2022/06/13 10:05:33;;;;;;;1.55;0.90;;;;;;;19.09;47.93;101637.69;5189735;28;20029;-80
2022/06/13 10:08:22;;;;;;;0.60;0.60;;;;;;;19.09;47.32;101643.00;5221826;28;20530;-79
2022/06/13 10:11:19;;;;;;;0.20;0.20;;;;;;;19.25;47.73;101647.56;5205115;28;20040;-79
2022/06/13 10:14:16;;;;;;;0.63;0.63;;;;;;;19.19;47.53;101649.59;5166919;28;20175;-79
2022/06/13 10:16:58;;;;;;;0.22;0.22;;;;;;;19.32;45.75;101659.63;5201115;28;20076;-79
2022/06/13 10:19:29;;;;;;;1.77;1.33;;;;;;;19.29;47.00;101670.44;5174771;28;20553;-79
2022/06/13 10:22:32;;;;;;;1.70;1.27;;;;;;;19.37;47.28;101662.94;5178700;28;20029;-78
2022/06/13 10:25:21;;;;;;;1.60;1.35;;;;;;;19.37;47.08;101657.63;5189335;28;20076;-78
2022/06/13 10:27:52;;;;;;;0.30;0.30;;;;;;;19.36;47.99;101655.88;5171019;28;20040;-78
2022/06/13 10:30:51;;;;;;;0.77;0.77;;;;;;;19.57;46.15;101658.41;5177641;28;20041;-78
2022/06/13 10:33:41;;;;;;;0.50;0.50;;;;;;;19.50;46.66;101650.72;5187675;28;20025;-78
2022/06/13 10:36:50;;;;;;;0.60;0.60;;;;;;;19.59;46.10;101657.38;5183415;28;20144;-79
2022/06/13 10:39:24;;;;;;;0.80;0.70;;;;;;;19.49;45.93;101654.34;5171455;28;20032;-79
2022/06/13 10:42:05;;;;;;;1.55;0.60;;;;;;;19.52;45.46;101655.97;5199750;28;20013;-79
2022/06/13 10:44:39;;;;;;;0.40;0.40;;;;;;;19.60;45.98;101658.25;5210531;28;20041;-79
2022/06/13 10:47:24;;;;;;;0.32;0.32;;;;;;;19.68;46.99;101661.41;5199856;28;20405;-78
2022/06/13 10:50:07;;;;;;;0.60;0.60;;;;;;;19.72;46.31;101660.28;5196985;28;20037;-81
2022/06/13 10:52:43;;;;;;;0.30;0.30;;;;;;;19.79;46.65;101658.19;5234892;28;20024;-84
2022/06/13 10:55:19;;;;;;;4.10;1.85;;;;;;;19.86;44.94;101656.09;5216127;28;20057;-85
2022/06/13 10:58:03;;;;;;;0.20;0.20;;;;;;;19.87;42.90;101655.19;5210030;28;20076;-81
2022/06/13 11:00:34;;;;;;;0.43;0.43;;;;;;;20.01;41.26;101660.63;5190121;28;20086;-80
2022/06/13 11:03:17;;;;;;;0.45;0.45;;;;;;;19.94;42.06;101669.88;5224840;28;20378;-81
2022/06/13 11:05:59;;;;;;;0.60;0.60;;;;;;;20.01;41.01;101668.63;5185812;28;20044;-82
2022/06/13 11:08:31;;;;;;;0.32;0.32;;;;;;;19.93;42.04;101663.69;5208887;28;20123;-77
2022/06/13 11:11:05;;;;;;;1.55;0.55;;;;;;;19.82;42.35;101669.53;5179412;28;20052;-77
2022/06/13 11:13:39;;;;;;;1.05;1.02;;;;;;;19.88;43.58;101663.06;5181449;28;20555;-79
2022/06/13 11:22:37;;;;;;;0.40;0.40;;;;;;;20.04;42.79;101668.44;5230435;28;20029;-79
2022/06/13 11:25:30;;;;;;;0.30;0.30;;;;;;;20.05;42.08;101664.84;5187739;28;20043;-79
2022/06/13 11:28:21;;;;;;;0.40;0.40;;;;;;;20.05;42.48;101662.19;5210419;28;20056;-79
2022/06/13 11:31:14;;;;;;;0.30;0.30;;;;;;;20.15;42.25;101656.38;5194856;28;20045;-79
2022/06/13 11:33:45;;;;;;;3.53;0.55;;;;;;;20.25;41.89;101657.63;5229375;28;20043;-79
2022/06/13 11:36:15;;;;;;;0.30;0.30;;;;;;;20.28;42.82;101654.81;5209777;28;20036;-79
2022/06/13 11:38:57;;;;;;;0.30;0.30;;;;;;;20.44;41.91;101653.03;5177063;28;20094;-79
2022/06/13 11:41:28;;;;;;;0.30;0.30;;;;;;;20.53;41.78;101658.81;5219490;28;20602;-79
2022/06/13 11:44:13;;;;;;;0.30;0.30;;;;;;;20.56;42.05;101653.28;5199318;28;20048;-79
2022/06/13 11:46:55;;;;;;;0.70;0.70;;;;;;;20.58;42.18;101646.09;5213942;28;20052;-80
2022/06/13 11:49:36;;;;;;;0.60;0.60;;;;;;;20.67;42.51;101647.38;5213472;28;20037;-80
2022/06/13 11:52:09;;;;;;;0.20;0.20;;;;;;;20.72;42.59;101659.50;5188012;28;20028;-82
2022/06/13 11:54:51;;;;;;;0.52;0.52;;;;;;;20.77;41.80;101653.94;5202729;28;20056;-79
2022/06/13 11:57:31;;;;;;;0.20;0.20;;;;;;;20.84;42.41;101647.31;5246663;28;20157;-78
2022/06/13 12:00:32;;;;;;;0.45;0.45;;;;;;;20.86;42.82;101660.59;5215207;28;20044;-80
2022/06/13 12:03:09;;;;;;;1.08;1.08;;;;;;;20.95;41.13;101662.72;5206943;28;20064;-77
2022/06/13 12:05:40;;;;;;;0.40;0.40;;;;;;;20.95;41.01;101661.88;5214180;28;20055;-79
2022/06/13 12:08:23;;;;;;;0.35;0.35;;;;;;;20.98;41.53;101675.06;5211983;28;20029;-78
2022/06/13 12:10:57;;;;;;;0.55;0.55;;;;;;;20.96;40.73;101666.28;5223615;28;20052;-78
2022/06/13 12:13:35;;;;;;;0.30;0.30;;;;;;;21.05;40.76;101676.44;5225996;28;20045;-78
2022/06/13 12:16:11;;;;;;;0.40;0.40;;;;;;;20.87;41.09;101667.63;5219704;28;20390;-78
2022/06/13 12:19:26;;;;;;;0.20;0.20;;;;;;;20.93;40.81;101669.97;5224641;28;20044;-79
2022/06/13 12:22:19;;;;;;;0.20;0.20;;;;;;;20.98;40.69;101669.72;5187465;28;20044;-80
2022/06/13 12:25:14;;;;;;;0.32;0.32;;;;;;;21.02;40.60;101666.78;5137065;28;20119;-80
2022/06/13 12:27:53;;;;;;;0.20;0.20;;;;;;;21.07;41.02;101672.72;5198618;28;20115;-78
2022/06/13 12:30:42;;;;;;;0.20;0.20;;;;;;;21.08;41.58;101665.56;5178799;28;20335;-79
2022/06/13 12:33:22;;;;;;;0.28;0.28;;;;;;;21.20;41.24;101674.69;5233643;28;20009;-78
2022/06/13 12:36:17;;;;;;;0.47;0.47;;;;;;;21.26;40.83;101669.00;5190438;28;20052;-80
2022/06/13 12:39:09;;;;;;;0.20;0.20;;;;;;;21.33;39.87;101669.50;5213610;28;20056;-78